Terminal Aerodrome Forecast
Issued by NWS Sioux Falls, SD

Home | Current Version | Previous Version | Text Only | Print | Product List | Glossary On
Versions: 1 2 3 4 5 6 7 8 9 10 11 12 13 14 15 16
000
FTUS43 KFSD 272337
TAFFSD
TAF
KFSD 272337Z 2800/2824 27007KT P6SM FEW120
     FM280900 28011KT P6SM BKN035
     FM281500 29018G25KT P6SM OVC030
     FM281800 30014G22KT P6SM BKN035=

USA.gov is the U.S. government's official web portal to all federal, state and local government web resources and services.